createdAt,value
2023-05-15T00:00:52.913Z,53.82
2023-05-15T00:01:52.865Z,53.82
2023-05-15T00:02:52.945Z,53.90
2023-05-15T00:03:52.988Z,53.83
2023-05-15T00:04:52.846Z,53.81
2023-05-15T00:05:52.873Z,53.86
2023-05-15T00:06:52.826Z,54.09
2023-05-15T00:07:52.954Z,54.06
2023-05-15T00:08:52.790Z,54.12
2023-05-15T00:09:52.804Z,54.12
2023-05-15T00:11:00.934Z,54.18
2023-05-15T00:11:54.140Z,54.18
2023-05-15T00:12:52.785Z,54.17
2023-05-15T00:13:52.866Z,53.92
2023-05-15T00:14:52.776Z,53.97
2023-05-15T00:15:53.054Z,54.03
2023-05-15T00:16:52.748Z,54.04
2023-05-15T00:17:52.859Z,53.93
2023-05-15T00:18:52.851Z,53.96
2023-05-15T00:19:52.728Z,55.47
2023-05-15T00:20:52.726Z,53.91
2023-05-15T00:21:52.718Z,53.86
2023-05-15T00:22:52.769Z,55.96
2023-05-15T00:23:52.708Z,53.85
2023-05-15T00:24:52.681Z,53.91
2023-05-15T00:25:52.674Z,53.81
2023-05-15T00:26:52.651Z,53.66
2023-05-15T00:27:52.789Z,53.97
2023-05-15T00:28:52.733Z,53.86
2023-05-15T00:29:52.641Z,53.67
2023-05-15T00:30:52.629Z,54.22
2023-05-15T00:31:52.676Z,55.71
2023-05-15T00:32:52.644Z,53.91
2023-05-15T00:33:52.648Z,55.46
2023-05-15T00:34:52.663Z,54.50
2023-05-15T00:35:52.598Z,54.14
2023-05-15T00:36:52.606Z,54.05
2023-05-15T00:37:52.598Z,54.25
2023-05-15T00:38:52.581Z,55.91
2023-05-15T00:39:52.579Z,54.22
2023-05-15T00:40:52.632Z,56.91
2023-05-15T00:41:52.568Z,54.98
2023-05-15T00:42:52.545Z,57.38
2023-05-15T00:43:52.550Z,54.77
2023-05-15T00:44:52.544Z,55.56
2023-05-15T00:45:52.627Z,55.13
2023-05-15T00:46:52.580Z,54.41
2023-05-15T00:47:52.541Z,54.28
2023-05-15T00:48:52.547Z,54.26
2023-05-15T00:49:52.508Z,53.90
2023-05-15T00:50:52.518Z,53.91
2023-05-15T00:51:52.565Z,54.03
2023-05-15T00:52:52.589Z,53.88
2023-05-15T00:53:52.559Z,54.07
2023-05-15T00:54:52.459Z,54.15
2023-05-15T00:55:52.468Z,54.26
2023-05-15T00:56:52.455Z,54.15
2023-05-15T00:57:52.491Z,55.97
2023-05-15T00:58:52.443Z,54.25
2023-05-15T00:59:52.445Z,54.26
2023-05-15T01:00:52.471Z,54.34
2023-05-15T01:01:52.416Z,54.17
2023-05-15T01:02:52.602Z,54.20
2023-05-15T01:03:52.494Z,54.10
2023-05-15T01:04:52.396Z,54.02
2023-05-15T01:05:52.392Z,54.09
2023-05-15T01:06:52.387Z,54.28
2023-05-15T01:07:52.381Z,54.29
2023-05-15T01:08:52.346Z,54.22
2023-05-15T01:09:52.340Z,54.12
2023-05-15T01:10:52.345Z,54.07
2023-05-15T01:11:52.323Z,55.28
2023-05-15T01:12:52.320Z,54.03
2023-05-15T01:13:52.389Z,53.99
2023-05-15T01:14:52.325Z,53.79
2023-05-15T01:15:52.348Z,53.82
2023-05-15T01:16:52.298Z,53.94
2023-05-15T01:17:52.439Z,53.99
2023-05-15T01:18:52.357Z,54.13
2023-05-15T01:19:52.906Z,54.60
2023-05-15T01:20:52.279Z,55.80
2023-05-15T01:21:52.280Z,54.47
2023-05-15T01:22:52.289Z,54.28
2023-05-15T01:23:52.230Z,54.25
2023-05-15T01:24:52.233Z,54.33
2023-05-15T01:25:52.293Z,54.38
2023-05-15T01:26:52.225Z,55.36
2023-05-15T01:27:52.206Z,54.26
2023-05-15T01:28:52.218Z,54.28
2023-05-15T01:29:52.210Z,54.25
2023-05-15T01:30:52.249Z,54.18
2023-05-15T01:31:52.242Z,54.34
2023-05-15T01:32:52.251Z,57.23
2023-05-15T01:33:52.149Z,67.62
2023-05-15T01:34:52.157Z,67.77
2023-05-15T01:35:52.196Z,74.49
2023-05-15T01:36:52.205Z,60.50
2023-05-15T01:37:52.151Z,55.10
2023-05-15T01:38:52.152Z,55.60
2023-05-15T01:39:52.119Z,66.04
2023-05-15T01:40:52.170Z,70.06
2023-05-15T01:41:52.159Z,55.59
2023-05-15T01:42:52.152Z,54.91
2023-05-15T01:43:52.090Z,54.09
2023-05-15T01:44:52.144Z,54.07
2023-05-15T01:45:52.135Z,54.15
2023-05-15T01:46:52.149Z,54.44
2023-05-15T01:47:52.179Z,54.15
2023-05-15T01:48:52.046Z,54.05
2023-05-15T01:49:52.060Z,54.12
2023-05-15T01:50:52.032Z,54.20
2023-05-15T01:51:52.129Z,59.85
2023-05-15T01:52:52.023Z,56.67
2023-05-15T01:53:52.028Z,54.32
2023-05-15T01:54:52.021Z,54.27
2023-05-15T01:55:52.007Z,54.22
2023-05-15T01:56:51.991Z,54.25
2023-05-15T01:57:52.062Z,57.03
2023-05-15T01:58:51.981Z,54.59
2023-05-15T01:59:51.972Z,54.15
2023-05-15T02:00:51.961Z,54.56
2023-05-15T02:01:51.999Z,54.47
2023-05-15T02:02:52.019Z,54.50
2023-05-15T02:03:52.113Z,54.51
2023-05-15T02:04:51.955Z,54.31
2023-05-15T02:05:51.965Z,54.31
2023-05-15T02:06:51.959Z,54.42
2023-05-15T02:07:51.914Z,54.22
2023-05-15T02:08:51.968Z,54.64
2023-05-15T02:09:51.900Z,55.42
2023-05-15T02:10:51.925Z,55.40
2023-05-15T02:11:51.881Z,54.28
2023-05-15T02:12:51.900Z,54.57
2023-05-15T02:13:51.876Z,54.26
2023-05-15T02:14:51.915Z,54.34
2023-05-15T02:15:51.890Z,54.46
2023-05-15T02:16:51.861Z,55.05
2023-05-15T02:17:51.880Z,55.27
2023-05-15T02:18:51.911Z,55.14
2023-05-15T02:19:51.819Z,54.71
2023-05-15T02:20:52.225Z,54.73
2023-05-15T02:21:51.818Z,55.99
2023-05-15T02:22:51.831Z,54.76
2023-05-15T02:23:51.799Z,54.42
2023-05-15T02:24:51.824Z,55.56
2023-05-15T02:25:51.788Z,54.35
2023-05-15T02:26:51.794Z,54.29
2023-05-15T02:27:51.778Z,54.14
2023-05-15T02:28:51.782Z,54.46
2023-05-15T02:29:51.772Z,54.50
2023-05-15T02:30:51.780Z,54.68
2023-05-15T02:31:51.805Z,58.22
2023-05-15T02:32:51.744Z,59.85
2023-05-15T02:33:51.772Z,54.75
2023-05-15T02:34:51.715Z,55.02
2023-05-15T02:35:51.711Z,55.03
2023-05-15T02:36:51.811Z,55.20
2023-05-15T02:37:51.718Z,55.18
2023-05-15T02:38:51.730Z,55.54
2023-05-15T02:39:51.681Z,55.36
2023-05-15T02:40:51.785Z,55.27
2023-05-15T02:41:51.674Z,55.13
2023-05-15T02:42:51.715Z,55.40
2023-05-15T02:43:51.669Z,55.44
2023-05-15T02:44:51.675Z,55.37
2023-05-15T02:45:51.656Z,55.66
2023-05-15T02:46:51.635Z,56.24
2023-05-15T02:47:51.700Z,55.63
2023-05-15T02:48:51.642Z,55.76
2023-05-15T02:49:51.610Z,56.06
2023-05-15T02:50:51.656Z,56.81
2023-05-15T02:51:51.600Z,56.02
2023-05-15T02:52:51.656Z,55.76
2023-05-15T02:53:51.638Z,55.37
2023-05-15T02:54:51.585Z,55.55
2023-05-15T02:55:51.585Z,55.59
2023-05-15T02:56:51.576Z,56.06
2023-05-15T02:57:51.557Z,55.78
2023-05-15T02:58:51.570Z,55.74
2023-05-15T02:59:51.577Z,55.72
2023-05-15T03:00:51.542Z,55.73
2023-05-15T03:01:51.505Z,55.34
2023-05-15T03:02:51.568Z,55.62
2023-05-15T03:03:51.554Z,55.84
2023-05-15T03:04:51.581Z,56.57
2023-05-15T03:05:51.522Z,56.90
2023-05-15T03:06:51.530Z,57.10
2023-05-15T03:07:51.489Z,56.51
2023-05-15T03:08:51.488Z,56.66
2023-05-15T03:09:51.494Z,57.01
2023-05-15T03:10:52.199Z,56.66
2023-05-15T03:11:51.476Z,56.99
2023-05-15T03:12:51.508Z,56.29
2023-05-15T03:13:51.444Z,57.65
2023-05-15T03:14:51.445Z,55.90
2023-05-15T03:15:51.436Z,57.04
2023-05-15T03:16:51.524Z,57.04
2023-05-15T03:17:51.486Z,56.69
2023-05-15T03:18:51.560Z,57.74
2023-05-15T03:19:51.425Z,55.80
2023-05-15T03:20:51.422Z,55.43
2023-05-15T03:21:51.874Z,55.95
2023-05-15T03:22:51.420Z,55.31
2023-05-15T03:23:51.391Z,55.41
2023-05-15T03:24:51.360Z,55.81
2023-05-15T03:25:51.350Z,56.04
2023-05-15T03:26:51.359Z,56.37
2023-05-15T03:27:51.413Z,58.24
2023-05-15T03:28:51.345Z,59.39
2023-05-15T03:29:51.345Z,57.23
2023-05-15T03:30:51.336Z,56.98
2023-05-15T03:31:51.354Z,56.00
2023-05-15T03:32:51.417Z,55.57
2023-05-15T03:33:51.388Z,55.67
2023-05-15T03:34:51.420Z,55.60
2023-05-15T03:35:51.263Z,55.75
2023-05-15T03:36:51.295Z,55.56
2023-05-15T03:37:51.263Z,56.82
2023-05-15T03:38:51.245Z,56.35
2023-05-15T03:39:51.304Z,56.96
2023-05-15T03:40:51.424Z,59.17
2023-05-15T03:41:51.254Z,56.01
2023-05-15T03:42:51.295Z,55.86
2023-05-15T03:43:51.219Z,56.30
2023-05-15T03:44:51.276Z,56.58
2023-05-15T03:45:51.220Z,57.06
2023-05-15T03:46:51.303Z,57.52
2023-05-15T03:47:51.282Z,57.96
2023-05-15T03:48:51.228Z,58.68
2023-05-15T03:49:51.227Z,57.05
2023-05-15T03:50:51.208Z,56.16
2023-05-15T03:51:51.186Z,57.21
2023-05-15T03:52:51.191Z,60.44
2023-05-15T03:53:51.175Z,56.29
2023-05-15T03:54:51.156Z,57.31
2023-05-15T03:55:51.148Z,56.05
2023-05-15T03:56:51.190Z,56.45
2023-05-15T03:57:51.116Z,56.84
2023-05-15T03:58:51.107Z,59.33
2023-05-15T03:59:51.122Z,57.94
2023-05-15T04:00:51.113Z,56.58
2023-05-15T04:02:03.466Z,57.36
2023-05-15T04:02:52.243Z,58.10
2023-05-15T04:03:51.096Z,56.24
2023-05-15T04:04:51.184Z,56.18
2023-05-15T04:05:51.113Z,56.79
2023-05-15T04:06:51.051Z,58.11
2023-05-15T04:07:51.067Z,56.74
2023-05-15T04:08:51.077Z,56.88
2023-05-15T04:09:51.069Z,56.43
2023-05-15T04:10:51.058Z,55.45
2023-05-15T04:11:51.041Z,57.25
2023-05-15T04:12:51.048Z,56.50
2023-05-15T04:13:51.048Z,57.68
2023-05-15T04:14:51.007Z,55.98
2023-05-15T04:15:51.001Z,57.53
2023-05-15T04:16:51.040Z,55.80
2023-05-15T04:17:51.009Z,57.25
2023-05-15T04:18:51.093Z,57.60
2023-05-15T04:19:50.990Z,56.00
2023-05-15T04:20:50.986Z,57.43
2023-05-15T04:21:50.948Z,57.00
2023-05-15T04:22:50.931Z,58.03
2023-05-15T04:23:51.177Z,56.86
2023-05-15T04:24:50.932Z,57.22
2023-05-15T04:25:50.927Z,57.37
2023-05-15T04:26:50.949Z,58.42
2023-05-15T04:27:50.941Z,61.33
2023-05-15T04:29:02.780Z,66.07
2023-05-15T04:29:51.940Z,62.23
2023-05-15T04:30:51.051Z,61.26
2023-05-15T04:31:50.927Z,61.30
2023-05-15T04:32:50.893Z,58.49
2023-05-15T04:33:51.446Z,61.64
2023-05-15T04:34:50.909Z,59.65
2023-05-15T04:35:50.883Z,58.56
2023-05-15T04:36:50.880Z,56.91
2023-05-15T04:37:50.837Z,56.46
2023-05-15T04:38:50.845Z,58.15
2023-05-15T04:39:50.850Z,56.93
2023-05-15T04:40:50.831Z,57.68
2023-05-15T04:41:50.868Z,57.19
2023-05-15T04:42:50.811Z,57.92
2023-05-15T04:43:50.802Z,57.38
2023-05-15T04:44:50.792Z,61.98
2023-05-15T04:45:50.869Z,63.26
2023-05-15T04:46:50.810Z,62.18
2023-05-15T04:47:50.815Z,61.88
2023-05-15T04:48:50.777Z,58.84
2023-05-15T04:49:50.786Z,57.36
2023-05-15T04:50:50.750Z,58.62
2023-05-15T04:51:50.748Z,56.93
2023-05-15T04:52:50.798Z,57.46
2023-05-15T04:53:50.787Z,57.84
2023-05-15T04:54:50.726Z,57.15
2023-05-15T04:55:50.725Z,59.25
2023-05-15T04:56:50.725Z,56.18
2023-05-15T04:57:50.708Z,57.61
2023-05-15T04:58:50.716Z,57.14
2023-05-15T04:59:50.737Z,59.43
2023-05-15T05:00:50.686Z,58.03
2023-05-15T05:01:50.697Z,58.75
2023-05-15T05:02:50.763Z,56.04
2023-05-15T05:03:50.679Z,58.89
2023-05-15T05:04:50.736Z,57.51
2023-05-15T05:05:50.665Z,57.50
2023-05-15T05:06:50.741Z,57.39
2023-05-15T05:07:50.628Z,56.33
2023-05-15T05:08:50.639Z,62.58
2023-05-15T05:09:50.628Z,60.56
2023-05-15T05:10:50.739Z,58.11
2023-05-15T05:11:50.611Z,62.10
2023-05-15T05:12:50.602Z,57.94
2023-05-15T05:13:50.680Z,57.18
2023-05-15T05:14:50.594Z,57.85
2023-05-15T05:15:50.637Z,56.49
2023-05-15T05:16:50.661Z,56.99
2023-05-15T05:17:50.953Z,60.73
2023-05-15T05:18:50.774Z,58.30
2023-05-15T05:19:50.546Z,58.56
2023-05-15T05:20:50.681Z,57.94
2023-05-15T05:21:50.565Z,58.89
2023-05-15T05:22:50.687Z,59.37
2023-05-15T05:23:50.539Z,57.84
2023-05-15T05:24:50.555Z,58.77
2023-05-15T05:25:50.522Z,60.44
2023-05-15T05:26:50.523Z,58.84
2023-05-15T05:27:50.878Z,60.39
2023-05-15T05:28:50.493Z,59.68
2023-05-15T05:29:50.501Z,61.57
2023-05-15T05:30:50.545Z,57.44
2023-05-15T05:31:50.595Z,60.58
2023-05-15T05:32:50.512Z,60.93
2023-05-15T05:33:50.521Z,59.56
2023-05-15T05:34:50.492Z,57.82
2023-05-15T05:35:50.436Z,59.45
2023-05-15T05:36:50.439Z,59.76
2023-05-15T05:37:50.448Z,64.89
2023-05-15T05:38:50.428Z,60.58
2023-05-15T05:39:50.555Z,60.14
2023-05-15T05:40:50.408Z,59.13
2023-05-15T05:41:50.419Z,58.69
2023-05-15T05:42:50.363Z,61.11
2023-05-15T05:43:50.379Z,60.08
2023-05-15T05:44:50.334Z,57.89
2023-05-15T05:45:50.390Z,61.68
2023-05-15T05:46:50.417Z,57.80
2023-05-15T05:47:50.371Z,62.98
2023-05-15T05:48:50.325Z,60.46
2023-05-15T05:49:50.312Z,60.62
2023-05-15T05:50:50.316Z,60.51
2023-05-15T05:51:50.341Z,59.54
2023-05-15T05:52:50.521Z,62.22
2023-05-15T05:53:50.387Z,57.80
2023-05-15T05:54:50.462Z,58.97
2023-05-15T05:55:50.564Z,58.22
2023-05-15T05:56:50.830Z,60.75
2023-05-15T05:57:50.485Z,59.34
2023-05-15T05:58:50.271Z,60.10
2023-05-15T05:59:50.312Z,59.87
2023-05-15T06:00:50.234Z,58.35
2023-05-15T06:01:50.268Z,62.83
2023-05-15T06:02:50.280Z,61.20
2023-05-15T06:03:50.346Z,60.26
2023-05-15T06:04:50.286Z,58.40
2023-05-15T06:05:50.221Z,59.37
2023-05-15T06:06:50.272Z,60.74
2023-05-15T06:07:50.216Z,60.60
2023-05-15T06:08:50.212Z,60.48
2023-05-15T06:09:50.150Z,63.86
2023-05-15T06:10:50.146Z,71.68
2023-05-15T06:11:50.161Z,74.22
2023-05-15T06:12:50.146Z,73.32
2023-05-15T06:13:50.144Z,72.42
2023-05-15T06:14:50.224Z,67.12
2023-05-15T06:15:50.105Z,58.63
2023-05-15T06:16:50.140Z,58.51
2023-05-15T06:17:50.121Z,61.32
2023-05-15T06:18:50.168Z,59.62
2023-05-15T06:19:50.111Z,59.04
2023-05-15T06:20:50.129Z,60.00
2023-05-15T06:21:50.055Z,57.91
2023-05-15T06:22:50.066Z,60.67
2023-05-15T06:23:50.078Z,62.27
2023-05-15T06:24:50.082Z,60.13
2023-05-15T06:25:50.033Z,60.42
2023-05-15T06:26:50.611Z,61.23
2023-05-15T06:27:50.033Z,60.14
2023-05-15T06:28:50.028Z,60.50
2023-05-15T06:29:50.016Z,60.32
2023-05-15T06:30:50.040Z,60.03
2023-05-15T06:31:50.580Z,58.84
2023-05-15T06:32:50.084Z,60.14
2023-05-15T06:33:50.021Z,61.97
2023-05-15T06:34:49.976Z,60.04
2023-05-15T06:35:49.978Z,59.02
2023-05-15T06:36:49.969Z,59.41
2023-05-15T06:37:49.996Z,60.66
2023-05-15T06:38:49.957Z,59.12
2023-05-15T06:39:49.961Z,58.95
2023-05-15T06:40:49.929Z,58.18
2023-05-15T06:41:49.923Z,59.90
2023-05-15T06:42:49.958Z,59.26
2023-05-15T06:43:49.952Z,59.21
2023-05-15T06:44:49.900Z,58.60
2023-05-15T06:45:49.917Z,59.78
2023-05-15T06:46:49.903Z,63.77
2023-05-15T06:47:49.929Z,59.64
2023-05-15T06:48:49.867Z,59.44
2023-05-15T06:49:49.902Z,63.42
2023-05-15T06:50:49.860Z,59.42
2023-05-15T06:51:49.889Z,61.03
2023-05-15T06:52:49.829Z,60.63
2023-05-15T06:53:49.859Z,59.86
2023-05-15T06:54:49.877Z,60.55
2023-05-15T06:55:49.879Z,59.37
2023-05-15T06:56:49.799Z,59.29
2023-05-15T06:57:49.816Z,60.29
2023-05-15T06:58:49.806Z,59.93
2023-05-15T06:59:49.789Z,60.20
2023-05-15T07:00:49.862Z,60.01
2023-05-15T07:01:49.851Z,59.43
2023-05-15T07:02:49.993Z,61.15
2023-05-15T07:03:49.761Z,58.73
2023-05-15T07:04:49.853Z,60.81
2023-05-15T07:05:49.759Z,61.29
2023-05-15T07:06:49.825Z,62.41
2023-05-15T07:07:49.729Z,59.47
2023-05-15T07:08:49.731Z,58.32
2023-05-15T07:09:49.727Z,57.65
2023-05-15T07:10:49.733Z,60.69
2023-05-15T07:11:49.747Z,59.60
2023-05-15T07:12:49.690Z,60.03
2023-05-15T07:13:50.694Z,59.15
2023-05-15T07:14:49.669Z,58.74
2023-05-15T07:15:49.663Z,58.60
2023-05-15T07:16:49.685Z,57.86
2023-05-15T07:17:49.825Z,60.85
2023-05-15T07:18:49.947Z,59.15
2023-05-15T07:19:49.649Z,56.96
2023-05-15T07:20:49.641Z,58.22
2023-05-15T07:21:49.644Z,58.39
2023-05-15T07:22:56.364Z,58.26
2023-05-15T07:23:50.703Z,56.35
2023-05-15T07:24:49.636Z,59.37
2023-05-15T07:25:49.624Z,60.33
2023-05-15T07:26:58.056Z,57.35
2023-05-15T07:27:50.588Z,57.76
2023-05-15T07:28:49.636Z,61.83
2023-05-15T07:29:49.611Z,59.28
2023-05-15T07:30:49.568Z,58.81
2023-05-15T07:31:49.615Z,57.69
2023-05-15T07:32:49.576Z,57.67
2023-05-15T07:33:49.554Z,55.76
2023-05-15T07:34:49.787Z,56.97
2023-05-15T07:35:49.525Z,56.80
2023-05-15T07:36:49.552Z,57.84
2023-05-15T07:37:49.536Z,62.77
2023-05-15T07:38:49.535Z,63.29
2023-05-15T07:39:49.544Z,58.30
2023-05-15T07:40:49.518Z,59.07
2023-05-15T07:41:49.478Z,59.73
2023-05-15T07:42:49.495Z,66.21
2023-05-15T07:43:49.487Z,66.09
2023-05-15T07:44:49.674Z,66.60
2023-05-15T07:45:49.557Z,62.89
2023-05-15T07:46:49.620Z,56.50
2023-05-15T07:47:49.468Z,57.19
2023-05-15T07:48:49.454Z,65.97
2023-05-15T07:49:49.473Z,58.41
2023-05-15T07:50:49.439Z,60.26
2023-05-15T07:51:49.450Z,55.92
2023-05-15T07:52:49.436Z,59.45
2023-05-15T07:53:49.412Z,59.43
2023-05-15T07:54:49.411Z,64.56
2023-05-15T07:55:49.407Z,56.57
2023-05-15T07:56:49.412Z,55.92
2023-05-15T07:57:53.507Z,57.44
2023-05-15T07:58:49.415Z,57.64
2023-05-15T07:59:49.366Z,64.96
2023-05-15T08:00:49.377Z,66.93
2023-05-15T08:01:49.378Z,63.26
2023-05-15T08:02:49.436Z,57.94
2023-05-15T08:03:49.547Z,57.35
2023-05-15T08:04:49.323Z,59.65
2023-05-15T08:05:49.321Z,64.64
2023-05-15T08:06:49.375Z,73.96
2023-05-15T08:07:49.322Z,76.14
2023-05-15T08:08:49.295Z,77.04
2023-05-15T08:09:49.361Z,76.79
2023-05-15T08:10:49.307Z,78.07
2023-05-15T08:11:49.287Z,65.21
2023-05-15T08:12:49.292Z,59.10
2023-05-15T08:13:49.300Z,56.55
2023-05-15T08:14:49.310Z,58.16
2023-05-15T08:15:49.288Z,59.02
2023-05-15T08:16:49.246Z,57.61
2023-05-15T08:17:49.244Z,59.19
2023-05-15T08:18:49.306Z,57.26
2023-05-15T08:19:49.249Z,56.22
2023-05-15T08:20:49.229Z,58.65
2023-05-15T08:21:49.221Z,56.93
2023-05-15T08:22:49.270Z,56.55
2023-05-15T08:23:49.180Z,55.34
2023-05-15T08:24:49.200Z,54.57
2023-05-15T08:25:49.177Z,56.22
2023-05-15T08:26:49.260Z,56.19
2023-05-15T08:27:49.173Z,56.99
2023-05-15T08:28:49.146Z,56.92
2023-05-15T08:29:49.162Z,54.74
2023-05-15T08:30:49.263Z,55.86
2023-05-15T08:31:49.285Z,57.04
2023-05-15T08:32:49.209Z,55.11
2023-05-15T08:33:49.158Z,58.58
2023-05-15T08:34:49.092Z,61.33
2023-05-15T08:35:49.150Z,61.37
2023-05-15T08:36:49.151Z,60.94
2023-05-15T08:37:49.397Z,61.21
2023-05-15T08:38:49.064Z,67.02
2023-05-15T08:39:49.078Z,64.65
2023-05-15T08:40:49.050Z,61.45
2023-05-15T08:41:49.040Z,59.62
2023-05-15T08:42:49.043Z,60.16
2023-05-15T08:43:49.101Z,62.43
2023-05-15T08:44:49.039Z,62.02
2023-05-15T08:45:49.043Z,60.42
2023-05-15T08:46:49.204Z,61.42
2023-05-15T08:47:49.112Z,62.83
2023-05-15T08:48:49.039Z,66.87
2023-05-15T08:49:49.044Z,61.20
2023-05-15T08:50:49.000Z,61.14
2023-05-15T08:51:48.984Z,59.27
2023-05-15T08:52:48.984Z,60.25
2023-05-15T08:53:48.956Z,61.53
2023-05-15T08:54:48.989Z,62.56
2023-05-15T08:55:48.970Z,62.51
2023-05-15T08:56:48.941Z,62.47
2023-05-15T08:57:48.954Z,60.73
2023-05-15T08:58:48.953Z,62.61
2023-05-15T08:59:48.912Z,64.75
2023-05-15T09:00:48.954Z,61.61
2023-05-15T09:01:48.954Z,62.79
2023-05-15T09:02:48.969Z,61.40
2023-05-15T09:03:48.945Z,61.93
2023-05-15T09:04:48.934Z,64.81
2023-05-15T09:05:48.877Z,66.27
2023-05-15T09:06:48.952Z,67.98
2023-05-15T09:07:48.948Z,64.85
2023-05-15T09:08:48.921Z,59.33
2023-05-15T09:09:48.842Z,60.31
2023-05-15T09:10:48.820Z,65.38
2023-05-15T09:11:48.827Z,61.62
2023-05-15T09:12:48.871Z,69.74
2023-05-15T09:13:48.853Z,79.37
2023-05-15T09:14:48.844Z,77.72
2023-05-15T09:15:48.822Z,78.13
2023-05-15T09:16:48.851Z,80.90
2023-05-15T09:17:48.868Z,61.73
2023-05-15T09:18:48.808Z,79.22
2023-05-15T09:19:48.771Z,79.81
2023-05-15T09:20:48.770Z,76.06
2023-05-15T09:21:48.764Z,79.31
2023-05-15T09:22:48.771Z,79.14
2023-05-15T09:23:48.834Z,83.06
2023-05-15T09:24:48.738Z,55.21
2023-05-15T09:25:48.711Z,56.59
2023-05-15T09:26:48.710Z,60.35
2023-05-15T09:27:48.689Z,57.41
2023-05-15T09:28:48.715Z,56.31
2023-05-15T09:29:48.744Z,56.56
2023-05-15T09:30:48.756Z,56.28
2023-05-15T09:31:48.784Z,56.45
2023-05-15T09:32:48.744Z,55.26
2023-05-15T09:33:48.660Z,57.88
2023-05-15T09:34:48.686Z,57.42
2023-05-15T09:35:48.673Z,58.82
2023-05-15T09:36:48.675Z,57.44
2023-05-15T09:37:48.661Z,56.70
2023-05-15T09:38:48.693Z,55.84
2023-05-15T09:39:48.706Z,55.18
2023-05-15T09:40:48.642Z,56.40
2023-05-15T09:41:48.626Z,57.76
2023-05-15T09:42:48.604Z,56.52
2023-05-15T09:43:48.608Z,56.39
2023-05-15T09:44:48.638Z,56.40
2023-05-15T09:45:48.640Z,55.93
2023-05-15T09:46:48.682Z,57.05
2023-05-15T09:47:48.688Z,56.93
2023-05-15T09:48:48.559Z,57.57
2023-05-15T09:49:48.575Z,58.75
2023-05-15T09:50:48.598Z,59.08
2023-05-15T09:51:48.573Z,59.19
2023-05-15T09:52:48.529Z,59.24
2023-05-15T09:53:48.552Z,65.84
2023-05-15T09:54:50.235Z,61.55
2023-05-15T09:55:48.514Z,56.81
2023-05-15T09:56:48.575Z,61.47
2023-05-15T09:57:48.509Z,57.87
2023-05-15T09:58:48.511Z,58.90
2023-05-15T09:59:48.554Z,57.12
2023-05-15T10:00:49.614Z,59.25
2023-05-15T10:01:48.538Z,59.60
2023-05-15T10:02:48.535Z,60.00
2023-05-15T10:03:48.501Z,60.13
2023-05-15T10:04:48.480Z,58.65
2023-05-15T10:05:48.614Z,58.62
2023-05-15T10:06:48.455Z,59.54
2023-05-15T10:07:48.476Z,59.40
2023-05-15T10:08:48.488Z,61.72
2023-05-15T10:09:48.419Z,61.53
2023-05-15T10:10:48.435Z,61.79
2023-05-15T10:11:48.481Z,63.55
2023-05-15T10:12:48.450Z,62.23
2023-05-15T10:13:48.455Z,63.05
2023-05-15T10:14:48.378Z,65.85
2023-05-15T10:15:48.401Z,64.64
2023-05-15T10:16:48.361Z,66.01
2023-05-15T10:17:48.647Z,64.58
2023-05-15T10:18:48.426Z,62.98
2023-05-15T10:19:57.808Z,62.98
2023-05-15T10:20:49.392Z,63.17
2023-05-15T10:21:48.377Z,62.72
2023-05-15T10:22:48.353Z,61.58
2023-05-15T10:23:48.352Z,63.57
2023-05-15T10:24:48.364Z,64.00
2023-05-15T10:25:48.364Z,63.98
2023-05-15T10:26:48.371Z,61.71
2023-05-15T10:27:48.307Z,61.16
2023-05-15T10:28:48.311Z,61.86
2023-05-15T10:29:48.335Z,62.61
2023-05-15T10:30:48.263Z,61.98
2023-05-15T10:31:48.317Z,63.83
2023-05-15T10:32:48.388Z,63.08
2023-05-15T10:33:48.312Z,63.32
2023-05-15T10:34:48.235Z,61.39
2023-05-15T10:35:48.259Z,63.19
2023-05-15T10:36:48.241Z,61.14
2023-05-15T10:37:48.258Z,60.99
2023-05-15T10:38:48.221Z,62.80
2023-05-15T10:39:48.282Z,64.23
2023-05-15T10:40:48.539Z,62.05
2023-05-15T10:41:48.213Z,60.67
2023-05-15T10:42:48.214Z,62.36
2023-05-15T10:43:48.207Z,62.44
2023-05-15T10:44:48.182Z,61.78
2023-05-15T10:45:48.165Z,62.66
2023-05-15T10:46:48.300Z,61.70
2023-05-15T10:47:48.243Z,61.68
2023-05-15T10:48:48.204Z,62.23
2023-05-15T10:49:48.190Z,61.94
2023-05-15T10:50:48.192Z,59.27
2023-05-15T10:51:48.126Z,59.45
2023-05-15T10:52:48.136Z,57.22
2023-05-15T10:53:48.160Z,56.65
2023-05-15T10:54:48.091Z,59.54
2023-05-15T10:55:48.113Z,59.51
2023-05-15T10:56:49.928Z,57.35
2023-05-15T10:57:48.154Z,59.08
2023-05-15T10:58:48.193Z,58.29
2023-05-15T10:59:48.074Z,58.93
2023-05-15T11:00:48.152Z,57.34
2023-05-15T11:01:48.036Z,56.33
2023-05-15T11:02:48.039Z,56.21
2023-05-15T11:03:49.622Z,56.35
2023-05-15T11:04:48.220Z,56.77
2023-05-15T11:05:48.009Z,56.47
2023-05-15T11:06:48.043Z,57.71
2023-05-15T11:07:47.965Z,55.95
2023-05-15T11:08:48.050Z,56.28
2023-05-15T11:09:48.088Z,57.24
2023-05-15T11:10:48.008Z,57.22
2023-05-15T11:11:47.959Z,57.81
2023-05-15T11:12:47.984Z,57.34
2023-05-15T11:13:47.943Z,57.80
2023-05-15T11:14:47.969Z,59.35
2023-05-15T11:15:47.992Z,58.22
2023-05-15T11:16:47.960Z,57.15
2023-05-15T11:17:47.946Z,57.59
2023-05-15T11:18:47.958Z,58.26
2023-05-15T11:19:48.060Z,58.73
2023-05-15T11:20:48.954Z,59.07
2023-05-15T11:21:47.957Z,56.96
2023-05-15T11:22:47.927Z,55.85
2023-05-15T11:23:47.929Z,55.39
2023-05-15T11:24:47.925Z,56.50
2023-05-15T11:25:47.903Z,56.69
2023-05-15T11:26:47.940Z,57.49
2023-05-15T11:27:47.876Z,57.96
2023-05-15T11:28:47.923Z,56.87
2023-05-15T11:29:48.823Z,56.89
2023-05-15T11:30:47.917Z,55.34
2023-05-15T11:31:47.866Z,53.94
2023-05-15T11:32:47.895Z,54.34
2023-05-15T11:33:47.825Z,55.41
2023-05-15T11:34:47.863Z,57.19
2023-05-15T11:35:48.004Z,55.52
2023-05-15T11:36:47.825Z,55.65
2023-05-15T11:37:47.789Z,56.00
2023-05-15T11:38:47.850Z,56.59
2023-05-15T11:39:47.801Z,57.08
2023-05-15T11:40:47.743Z,58.61
2023-05-15T11:41:48.268Z,57.50
2023-05-15T11:42:47.740Z,55.47
2023-05-15T11:43:47.810Z,56.08
2023-05-15T11:44:47.796Z,55.47
2023-05-15T11:45:47.794Z,55.00
2023-05-15T11:46:47.754Z,56.87
2023-05-15T11:47:47.909Z,55.54
2023-05-15T11:48:47.859Z,58.30
2023-05-15T11:49:47.704Z,56.56
2023-05-15T11:50:47.744Z,54.19
2023-05-15T11:51:47.666Z,56.08
2023-05-15T11:52:47.710Z,55.97
2023-05-15T11:53:47.709Z,56.91
2023-05-15T11:54:47.669Z,55.46
2023-05-15T11:55:47.661Z,57.00
2023-05-15T11:56:47.619Z,57.61
2023-05-15T11:57:47.626Z,55.63
2023-05-15T11:58:47.668Z,57.83
2023-05-15T11:59:47.690Z,55.32
2023-05-15T12:00:47.627Z,56.23
2023-05-15T12:01:47.770Z,56.32
2023-05-15T12:02:47.646Z,56.03
2023-05-15T12:03:47.772Z,55.97
2023-05-15T12:04:47.682Z,55.07
2023-05-15T12:05:57.577Z,56.45
2023-05-15T12:06:48.544Z,57.04
2023-05-15T12:07:47.616Z,57.56
2023-05-15T12:08:49.583Z,58.01
2023-05-15T12:09:47.552Z,56.52
2023-05-15T12:10:47.590Z,58.30
2023-05-15T12:11:47.604Z,57.61
2023-05-15T12:12:47.646Z,55.42
2023-05-15T12:13:47.642Z,56.40
2023-05-15T12:14:47.549Z,55.19
2023-05-15T12:15:47.558Z,55.95
2023-05-15T12:16:47.526Z,53.91
2023-05-15T12:17:47.540Z,55.09
2023-05-15T12:18:47.649Z,52.99
2023-05-15T12:19:47.532Z,55.73
2023-05-15T12:20:48.574Z,53.74
2023-05-15T12:21:47.553Z,52.64
2023-05-15T12:22:48.478Z,53.63
2023-05-15T12:23:53.373Z,55.69
2023-05-15T12:24:48.521Z,56.53
2023-05-15T12:25:47.438Z,58.74
2023-05-15T12:26:47.547Z,57.38
2023-05-15T12:27:48.435Z,56.26
2023-05-15T12:28:47.405Z,55.43
2023-05-15T12:29:47.498Z,59.10
2023-05-15T12:30:47.482Z,55.85
2023-05-15T12:31:47.491Z,56.03
2023-05-15T12:32:47.467Z,53.75
2023-05-15T12:33:47.437Z,53.83
2023-05-15T12:34:47.372Z,56.68
2023-05-15T12:35:47.384Z,55.52
2023-05-15T12:36:47.389Z,55.38
2023-05-15T12:37:47.404Z,56.17
2023-05-15T12:38:47.382Z,55.78
2023-05-15T12:39:47.405Z,57.97
2023-05-15T12:40:47.385Z,57.09
2023-05-15T12:41:49.094Z,57.25
2023-05-15T12:42:47.369Z,56.70
2023-05-15T12:43:47.339Z,54.90
2023-05-15T12:44:47.372Z,54.72
2023-05-15T12:45:47.361Z,54.92
2023-05-15T12:46:47.300Z,54.68
2023-05-15T12:47:47.935Z,54.17
2023-05-15T12:48:48.433Z,55.19
2023-05-15T12:49:47.279Z,55.90
2023-05-15T12:50:47.254Z,54.76
2023-05-15T12:51:47.268Z,55.06
2023-05-15T12:52:47.267Z,54.08